Terminal Aerodrome Forecast
Issued by NWS

Home | Current Version | Previous Version | Text Only | Print | Product List | Glossary On
Versions: 1 2 3 4 5 6 7 8 9 10 11 12 13 14 15 16 17 18 19 20
385
FTUS46 KLOX 301308 AAA
TAFOXR
TAF AMD
KOXR 301308Z 3013/0112 05006KT P6SM OVC025
     FM301800 27012KT P6SM SCT040
     FM010300 VRB03KT P6SM SCT050
     FM010800 VRB03KT 5SM BR BKN015=

USA.gov is the U.S. government's official web portal to all federal, state and local government web resources and services.